createdAt,value
2019-01-04T00:00:37.022Z,78.14
2019-01-04T00:05:40.327Z,78.54
2019-01-04T00:10:44.232Z,79.47
2019-01-04T00:15:48.416Z,79.04
2019-01-04T00:20:53.251Z,78.81
2019-01-04T00:25:56.888Z,77.73
2019-01-04T00:31:07.320Z,77.16
2019-01-04T00:36:29.329Z,76.45
2019-01-04T00:41:50.441Z,76.19
2019-01-04T00:47:11.955Z,76.53
2019-01-04T00:52:35.216Z,76.68
2019-01-04T00:58:14.103Z,76.48
2019-01-04T01:04:37.118Z,76.53
2019-01-04T01:36:39.584Z,77.97
2019-01-04T01:42:36.852Z,78.37
2019-01-04T01:48:13.900Z,78.44
2019-01-04T01:53:50.337Z,78.70
2019-01-04T01:59:13.989Z,77.98
2019-01-04T02:04:34.950Z,76.91
2019-01-04T02:09:55.413Z,77.38
2019-01-04T02:15:17.353Z,77.85
2019-01-04T02:20:19.771Z,77.54
2019-01-04T02:25:22.277Z,78.51
2019-01-04T02:30:24.568Z,78.56
2019-01-04T02:35:27.694Z,78.18
2019-01-04T02:40:29.907Z,77.47
2019-01-04T02:45:32.255Z,77.69
2019-01-04T02:50:35.275Z,77.90
2019-01-04T02:55:37.305Z,77.43
2019-01-04T03:00:39.455Z,77.83
2019-01-04T03:05:41.476Z,77.99
2019-01-04T03:10:43.702Z,78.23
2019-01-04T03:15:47.189Z,78.15
2019-01-04T03:20:49.347Z,77.44
2019-01-04T03:25:51.416Z,77.36
2019-01-04T03:30:54.711Z,76.95
2019-01-04T03:35:59.664Z,76.96
2019-01-04T03:41:03.046Z,76.56
2019-01-04T03:46:05.183Z,76.21
2019-01-04T03:51:07.165Z,76.79
2019-01-04T03:56:09.413Z,76.66
2019-01-04T04:01:11.628Z,76.29
2019-01-04T04:06:19.452Z,75.96
2019-01-04T04:11:21.690Z,75.15
2019-01-04T04:16:23.705Z,73.23
2019-01-04T04:21:25.740Z,73.12
2019-01-04T04:26:27.786Z,73.33
2019-01-04T04:31:30.089Z,73.30
2019-01-04T04:36:32.366Z,73.37
2019-01-04T04:41:34.475Z,73.91
2019-01-04T04:46:36.570Z,73.88
2019-01-04T04:51:38.568Z,73.01
2019-01-04T04:56:40.660Z,72.97
2019-01-04T05:01:42.772Z,72.86
2019-01-04T05:06:44.889Z,73.03
2019-01-04T05:11:46.950Z,72.45
2019-01-04T05:16:48.918Z,72.16
2019-01-04T05:21:50.993Z,71.57
2019-01-04T05:26:53.170Z,71.90
2019-01-04T05:31:55.234Z,71.18
2019-01-04T05:36:57.237Z,71.23
2019-01-04T05:42:00.960Z,70.90
2019-01-04T05:47:03.064Z,69.93
2019-01-04T05:52:05.057Z,69.91
2019-01-04T05:57:07.018Z,69.00
2019-01-04T06:02:08.968Z,66.87
2019-01-04T06:07:11.050Z,66.53
2019-01-04T06:12:13.256Z,66.74
2019-01-04T06:17:15.305Z,65.80
2019-01-04T06:22:17.554Z,65.55
2019-01-04T06:27:19.769Z,65.66
2019-01-04T06:32:22.020Z,65.92
2019-01-04T06:37:24.025Z,66.25
2019-01-04T06:42:26.301Z,66.11
2019-01-04T06:47:28.365Z,67.04
2019-01-04T06:52:30.449Z,66.40
2019-01-04T06:57:32.438Z,66.43
2019-01-04T07:02:34.554Z,66.96
2019-01-04T07:07:36.937Z,66.97
2019-01-04T07:12:39.091Z,67.28
2019-01-04T07:17:41.243Z,67.22
2019-01-04T07:22:43.252Z,67.65
2019-01-04T07:27:45.325Z,67.91
2019-01-04T07:32:47.515Z,67.51
2019-01-04T07:37:49.682Z,68.35
2019-01-04T07:42:52.067Z,68.17
2019-01-04T07:47:54.154Z,68.34
2019-01-04T07:52:56.369Z,68.28
2019-01-04T07:57:58.574Z,68.13
2019-01-04T08:03:14.974Z,68.00
2019-01-04T08:08:17.195Z,68.02
2019-01-04T08:13:19.215Z,68.62
2019-01-04T08:18:21.306Z,68.77
2019-01-04T08:23:23.693Z,68.49
2019-01-04T08:28:26.001Z,68.76
2019-01-04T08:33:30.332Z,68.72
2019-01-04T08:38:32.407Z,68.21
2019-01-04T08:43:34.490Z,68.17
2019-01-04T08:48:36.477Z,68.42
2019-01-04T08:54:01.655Z,68.10
2019-01-04T08:59:04.539Z,68.34
2019-01-04T09:04:06.558Z,68.04
2019-01-04T09:09:10.781Z,68.04
2019-01-04T09:14:12.914Z,68.44
2019-01-04T09:19:14.982Z,67.99
2019-01-04T09:24:17.163Z,68.87
2019-01-04T09:29:20.770Z,68.82
2019-01-04T09:34:22.790Z,69.86
2019-01-04T09:39:25.784Z,69.71
2019-01-04T09:44:27.962Z,69.85
2019-01-04T09:49:29.940Z,69.70
2019-01-04T09:54:32.048Z,69.96
2019-01-04T09:59:34.039Z,69.75
2019-01-04T10:04:36.231Z,69.85
2019-01-04T10:09:38.423Z,69.77
2019-01-04T10:14:40.548Z,70.08
2019-01-04T10:19:42.571Z,70.45
2019-01-04T10:24:44.671Z,71.32
2019-01-04T10:29:46.743Z,71.21
2019-01-04T10:34:49.689Z,70.84
2019-01-04T10:39:51.657Z,70.83
2019-01-04T10:44:55.661Z,71.16
2019-01-04T10:49:59.824Z,71.11
2019-01-04T10:55:02.726Z,71.13
2019-01-04T11:00:09.139Z,71.71
2019-01-04T11:05:15.339Z,72.35
2019-01-04T11:10:18.455Z,73.80
2019-01-04T11:15:21.178Z,74.75
2019-01-04T11:20:41.292Z,74.06
2019-01-04T11:26:06.007Z,73.49
2019-01-04T11:31:28.044Z,73.76
2019-01-04T11:37:02.397Z,73.41
2019-01-04T11:42:30.840Z,76.14
2019-01-04T11:48:16.439Z,78.69
2019-01-04T11:53:23.593Z,80.10
2019-01-04T11:58:28.511Z,80.78
2019-01-04T12:03:32.690Z,81.19
2019-01-04T12:08:37.930Z,81.44
2019-01-04T12:13:43.729Z,81.03
2019-01-04T12:18:50.130Z,80.82
2019-01-04T12:23:52.985Z,80.12
2019-01-04T12:28:56.905Z,80.08
2019-01-04T12:33:59.487Z,79.58
2019-01-04T12:39:03.792Z,79.00
2019-01-04T12:44:24.533Z,78.94
2019-01-04T12:49:45.296Z,78.57
2019-01-04T12:54:47.522Z,78.21
2019-01-04T12:59:50.118Z,78.06
2019-01-04T13:04:52.015Z,77.67
2019-01-04T13:09:53.910Z,76.94
2019-01-04T13:14:55.870Z,76.55
2019-01-04T13:19:57.821Z,76.75
2019-01-04T13:24:59.709Z,76.93
2019-01-04T13:30:02.133Z,76.60
2019-01-04T13:35:05.789Z,76.61
2019-01-04T13:40:07.963Z,76.74
2019-01-04T13:45:10.090Z,76.62
2019-01-04T13:50:12.092Z,76.78
2019-01-04T13:55:14.052Z,76.62
2019-01-04T14:00:16.359Z,76.74
2019-01-04T14:05:18.245Z,76.34
2019-01-04T14:10:20.283Z,75.97
2019-01-04T14:15:22.217Z,76.19
2019-01-04T14:20:24.108Z,76.20
2019-01-04T14:25:26.056Z,76.41
2019-01-04T14:30:27.965Z,76.39
2019-01-04T14:35:29.867Z,76.39
2019-01-04T14:40:31.773Z,77.06
2019-01-04T14:45:33.863Z,77.32
2019-01-04T14:50:35.772Z,77.57
2019-01-04T14:55:37.661Z,77.17
2019-01-04T15:00:39.572Z,76.97
2019-01-04T15:05:41.469Z,77.43
2019-01-04T15:10:43.390Z,77.17
2019-01-04T15:15:45.333Z,77.31
2019-01-04T15:20:47.301Z,77.85
2019-01-04T15:25:49.227Z,79.10
2019-01-04T15:30:52.177Z,80.04
2019-01-04T15:35:54.099Z,81.36
2019-01-04T15:40:56.000Z,81.68
2019-01-04T15:45:58.045Z,81.86
2019-01-04T15:50:59.933Z,82.79
2019-01-04T15:56:02.286Z,82.72
2019-01-04T16:01:04.174Z,82.62
2019-01-04T16:06:06.093Z,82.84
2019-01-04T16:11:08.037Z,83.22
2019-01-04T16:16:09.979Z,83.52
2019-01-04T16:21:11.862Z,83.49
2019-01-04T16:26:14.048Z,83.41
2019-01-04T16:31:15.956Z,83.38
2019-01-04T16:36:17.844Z,83.50
2019-01-04T16:41:19.792Z,83.41
2019-01-04T16:46:21.807Z,83.81
2019-01-04T16:51:23.694Z,82.57
2019-01-04T16:56:25.702Z,82.65
2019-01-04T17:01:27.690Z,82.65
2019-01-04T17:06:29.733Z,82.34
2019-01-04T17:11:31.742Z,81.90
2019-01-04T17:16:33.665Z,81.44
2019-01-04T17:21:35.605Z,81.42
2019-01-04T17:26:37.508Z,81.20
2019-01-04T17:31:39.427Z,81.32
2019-01-04T17:36:41.366Z,81.22
2019-01-04T17:41:43.266Z,81.23
2019-01-04T17:46:45.960Z,81.11
2019-01-04T17:51:48.060Z,80.73
2019-01-04T17:56:50.008Z,80.97
2019-01-04T18:01:52.116Z,80.47
2019-01-04T18:06:54.120Z,80.32
2019-01-04T18:11:56.069Z,80.58
2019-01-04T18:16:58.024Z,80.23
2019-01-04T18:22:01.144Z,81.44
2019-01-04T18:27:03.623Z,80.88
2019-01-04T18:32:05.578Z,80.88
2019-01-04T18:37:07.613Z,80.93
2019-01-04T18:42:09.706Z,80.93
2019-01-04T18:47:11.594Z,80.81
2019-01-04T18:52:13.809Z,81.01
2019-01-04T18:57:15.740Z,80.89
2019-01-04T19:02:17.641Z,80.99
2019-01-04T19:07:19.547Z,81.07
2019-01-04T19:12:21.465Z,80.83
2019-01-04T19:17:23.353Z,80.65
2019-01-04T19:22:25.279Z,81.03
2019-01-04T19:27:27.503Z,81.32
2019-01-04T19:32:29.448Z,80.98
2019-01-04T19:37:31.445Z,81.01
2019-01-04T19:42:33.470Z,81.28
2019-01-04T19:47:35.379Z,81.68
2019-01-04T19:52:37.463Z,81.59
2019-01-04T19:57:39.476Z,81.66
2019-01-04T20:02:41.373Z,81.93
2019-01-04T20:08:40.067Z,81.94
2019-01-04T20:14:53.510Z,82.67
2019-01-04T20:20:26.996Z,82.72
2019-01-04T20:25:43.818Z,82.84
2019-01-04T20:30:58.564Z,82.96
2019-01-04T20:36:18.420Z,83.44
2019-01-04T20:41:52.341Z,83.31
2019-01-04T20:47:12.627Z,83.20
2019-01-04T20:52:32.916Z,83.05
2019-01-04T20:57:52.846Z,83.02
2019-01-04T21:03:17.268Z,82.89
2019-01-04T21:08:38.034Z,82.57
2019-01-04T21:14:02.449Z,82.64
2019-01-04T21:19:22.758Z,82.72
2019-01-04T21:24:44.466Z,83.12
2019-01-04T21:30:15.603Z,83.12
2019-01-04T21:35:36.233Z,83.12
2019-01-04T21:40:56.269Z,83.27
2019-01-04T21:46:16.391Z,83.42
2019-01-04T21:51:45.550Z,83.73
2019-01-04T21:57:12.825Z,83.72
2019-01-04T22:02:34.456Z,83.72
2019-01-04T22:08:06.176Z,84.22
2019-01-04T22:13:33.501Z,84.15
2019-01-04T22:18:58.179Z,84.54
2019-01-04T22:24:15.011Z,84.26
2019-01-04T22:29:48.677Z,84.55
2019-01-04T22:35:18.986Z,84.82
2019-01-04T22:40:33.982Z,85.27
2019-01-04T22:45:54.515Z,85.09
2019-01-04T22:51:22.045Z,85.39
2019-01-04T22:56:42.246Z,85.24
2019-01-04T23:02:08.328Z,85.31
2019-01-04T23:07:42.044Z,85.45
2019-01-04T23:12:58.369Z,85.57
2019-01-04T23:18:19.941Z,85.73
2019-01-04T23:23:40.316Z,85.29
2019-01-04T23:28:53.125Z,85.51
2019-01-04T23:34:13.278Z,85.74
2019-01-04T23:39:39.174Z,85.44
2019-01-04T23:45:09.760Z,85.48
2019-01-04T23:50:30.101Z,85.54
2019-01-04T23:55:49.535Z,85.34
